This is the latest recevied weather packets stored in our database for station/object K3MV-13. If no packets are shown the sender has not sent any weather packets the latest 10 day(s).
| Time | Temp. | Humidity | Pressure | Rain* | Wind** | Luminosity | Snow |
|---|---|---|---|---|---|---|---|
| 1777754674 | 7.22° C | 58% | 1013.1 hPa | 0 mm | - | 139 W/m² | - |
| 1777754372 | 7.22° C | 58% | 1013 hPa | 0 mm | - | 186 W/m² | - |
| 1777753764 | 7.78° C | 56% | 1013.1 hPa | 0 mm | - | 187 W/m² | - |
| 1777753461 | 7.78° C | 55% | 1013.1 hPa | 0 mm | - | 174 W/m² | - |
| 1777753160 | 7.78° C | 55% | 1013 hPa | 0 mm | - | 245 W/m² | - |
| 1777752855 | 8.33° C | 55% | 1013.1 hPa | 0 mm | - | 207 W/m² | - |
| 1777751946 | 7.22° C | 58% | 1013.5 hPa | 0 mm | - | 165 W/m² | - |
| 1777751643 | 7.22° C | 60% | 1013.5 hPa | 0 mm | - | 210 W/m² | - |
| 1777751036 | 7.22° C | 58% | 1013.5 hPa | 0 mm | - | 252 W/m² | - |
| 1777750732 | 7.78° C | 59% | 1013.6 hPa | 0 mm | - | 276 W/m² | - |
| 1777750124 | 6.67° C | 61% | 1013.5 hPa | 0 mm | - | 221 W/m² | - |
| 1777749519 | 7.22° C | 56% | 1013.6 hPa | 0 mm | - | 87 W/m² | - |
| 1777748913 | 7.78° C | 57% | 1013.6 hPa | 0 mm | - | 177 W/m² | - |
| 1777748307 | 7.78° C | 55% | 1013.9 hPa | 0 mm | - | 153 W/m² | - |
| 1777745876 | 7.22° C | 58% | 1014.1 hPa | 0 mm | - | 134 W/m² | - |
| 1777744670 | 7.22° C | 56% | 1014.2 hPa | 0 mm | - | 309 W/m² | - |
| 1777743153 | 6.67° C | 58% | 1014 hPa | 0 mm | - | 146 W/m² | - |
| 1777742851 | 7.22° C | 58% | 1013.7 hPa | 0 mm | - | 149 W/m² | - |
| 1777742547 | 7.22° C | 57% | 1013.9 hPa | 0 mm | - | 214 W/m² | - |
| 1777742243 | 7.22° C | 58% | 1013.9 hPa | 0 mm | - | 316 W/m² | - |
| 1777741637 | 6.67° C | 59% | 1013.9 hPa | 0 mm | - | 191 W/m² | - |
| 1777741030 | 6.67° C | 59% | 1014.1 hPa | 0 mm | - | 127 W/m² | - |
| 1777739816 | 7.78° C | 54% | 1014.2 hPa | 0 mm | - | 228 W/m² | - |
| 1777739210 | 6.67° C | 61% | 1014.2 hPa | 0 mm | - | 533 W/m² | - |
| 1777738907 | 6.67° C | 60% | 1014.2 hPa | 0 mm | - | 266 W/m² | - |
* Rain latest hour (hover to see other rain measurements)
** Current wind speed in m/s (hover to see current wind gust speed)